Time;durP1;ratioP1;P1;durP2;ratioP2;P2;SDS_P1;SDS_P2;PMS_P1;PMS_P2;Temp;Humidity;BMP_temperature;BMP_pressure;BME280_temperature;BME280_humidity;BME280_pressure;Samples;Min_cycle;Max_cycle;Signal;HPM_P1;HPM_P2
2023/10/28 00:02:16;;;;;;;7.50;4.68;;;8.40;99.90;;;;;;5090837;28;20032;-82
2023/10/28 00:04:41;;;;;;;12.48;5.05;;;8.40;99.90;;;;;;5085448;28;20076;-82
2023/10/28 00:07:07;;;;;;;11.65;4.35;;;8.40;99.90;;;;;;5112629;27;20039;-82
2023/10/28 00:09:33;;;;;;;10.02;4.72;;;8.30;99.90;;;;;;5097144;28;20097;-82
2023/10/28 00:11:58;;;;;;;12.52;4.15;;;8.30;99.90;;;;;;5061816;28;20036;-82
2023/10/28 00:14:24;;;;;;;8.70;4.40;;;8.30;99.90;;;;;;5067207;28;20425;-82
2023/10/28 00:16:50;;;;;;;6.28;4.40;;;8.40;99.90;;;;;;5063233;28;20799;-83
2023/10/28 00:19:16;;;;;;;6.30;4.13;;;8.30;99.90;;;;;;5077576;28;20034;-83
2023/10/28 00:21:42;;;;;;;6.63;4.03;;;8.30;99.90;;;;;;5064075;28;20031;-82
2023/10/28 00:24:10;;;;;;;6.47;3.72;;;8.30;99.90;;;;;;5079615;28;20497;-82
2023/10/28 00:26:35;;;;;;;5.72;3.83;;;8.30;99.90;;;;;;5099176;28;20036;-83
2023/10/28 00:29:42;;;;;;;6.00;3.42;;;8.30;99.90;;;;;;5080703;28;20652;-83
2023/10/28 00:32:09;;;;;;;7.35;3.10;;;8.30;99.90;;;;;;5085027;28;20381;-82
2023/10/28 00:34:35;;;;;;;3.92;3.38;;;8.20;99.90;;;;;;5097455;28;20788;-83
2023/10/28 00:37:01;;;;;;;4.15;2.63;;;8.20;99.90;;;;;;5058070;28;20043;-82
2023/10/28 00:39:26;;;;;;;8.15;4.32;;;8.20;99.90;;;;;;5092648;28;20486;-82
2023/10/28 00:41:52;;;;;;;7.32;3.00;;;8.10;99.90;;;;;;5062549;28;20028;-83
2023/10/28 00:44:18;;;;;;;6.30;3.05;;;8.20;99.90;;;;;;5061709;28;20039;-83
2023/10/28 00:46:50;;;;;;;7.10;4.72;;;8.20;99.90;;;;;;5080428;28;20027;-82
2023/10/28 00:49:25;;;;;;;8.40;5.00;;;8.10;99.90;;;;;;5105326;28;20067;-82
2023/10/28 00:51:52;;;;;;;6.75;4.57;;;8.10;99.90;;;;;;5091727;28;20475;-83
2023/10/28 00:54:17;;;;;;;6.63;4.32;;;8.10;99.90;;;;;;5096949;28;20046;-83
2023/10/28 00:56:44;;;;;;;9.30;4.72;;;8.10;99.90;;;;;;5077632;28;20016;-82
2023/10/28 00:59:11;;;;;;;6.47;5.18;;;8.20;99.90;;;;;;5066387;28;20038;-82
2023/10/28 01:01:38;;;;;;;5.20;3.90;;;8.10;99.90;;;;;;5061329;28;20386;-82
2023/10/28 01:04:05;;;;;;;6.07;4.30;;;8.10;99.90;;;;;;5060316;28;20105;-82
2023/10/28 01:06:31;;;;;;;7.45;4.80;;;8.10;99.90;;;;;;5063647;28;20030;-83
2023/10/28 01:08:59;;;;;;;5.85;4.03;;;8.10;99.90;;;;;;5063179;28;20035;-82
2023/10/28 01:11:25;;;;;;;5.53;3.95;;;8.10;99.90;;;;;;5064492;28;20447;-83
2023/10/28 01:13:50;;;;;;;7.18;4.68;;;8.10;99.90;;;;;;5115344;28;20115;-83
2023/10/28 01:16:16;;;;;;;6.38;4.40;;;8.10;99.90;;;;;;5079630;28;20055;-83
2023/10/28 01:18:42;;;;;;;6.10;4.88;;;8.10;99.90;;;;;;5077208;28;20107;-83
2023/10/28 01:21:14;;;;;;;5.78;4.53;;;8.10;99.90;;;;;;5065487;28;20035;-83
2023/10/28 01:23:40;;;;;;;9.93;4.93;;;8.10;99.90;;;;;;5080055;28;20112;-82
2023/10/28 01:26:06;;;;;;;6.90;4.80;;;8.00;99.90;;;;;;5101361;28;20061;-83
2023/10/28 01:28:32;;;;;;;6.10;4.15;;;8.00;99.90;;;;;;5094913;28;20016;-83
2023/10/28 01:30:59;;;;;;;7.85;5.30;;;8.00;99.90;;;;;;5063674;28;20038;-82
2023/10/28 01:33:53;;;;;;;8.80;5.25;;;8.00;99.90;;;;;;5066198;28;20020;-83
2023/10/28 01:36:19;;;;;;;8.60;5.47;;;8.00;99.90;;;;;;5062729;28;20036;-82
2023/10/28 01:38:44;;;;;;;6.90;5.43;;;7.90;99.90;;;;;;5098979;28;20020;-82
2023/10/28 01:41:13;;;;;;;11.40;6.22;;;7.90;99.90;;;;;;5098308;28;20085;-82
2023/10/28 01:43:46;;;;;;;9.48;6.32;;;7.90;99.90;;;;;;5110325;28;20028;-82
2023/10/28 01:46:12;;;;;;;12.18;7.13;;;7.90;99.90;;;;;;5064764;28;20471;-82
2023/10/28 01:48:37;;;;;;;8.43;6.70;;;7.90;99.90;;;;;;5069873;28;20036;-82
2023/10/28 01:51:03;;;;;;;11.40;6.10;;;7.90;99.90;;;;;;5065995;28;20460;-82
2023/10/28 01:53:30;;;;;;;12.57;8.57;;;7.90;99.90;;;;;;5063963;28;20027;-82
2023/10/28 01:55:57;;;;;;;15.30;8.85;;;7.90;99.90;;;;;;5084195;28;20039;-82
2023/10/28 01:58:24;;;;;;;14.40;8.60;;;7.90;99.90;;;;;;5092482;28;20035;-82
2023/10/28 02:00:50;;;;;;;11.07;7.45;;;7.90;99.90;;;;;;5094425;28;20447;-83
2023/10/28 02:03:16;;;;;;;18.88;12.15;;;7.90;99.90;;;;;;5072103;28;20039;-82
2023/10/28 02:05:41;;;;;;;13.40;7.50;;;7.90;99.90;;;;;;5082372;28;20036;-82
2023/10/28 02:08:07;;;;;;;18.63;10.60;;;7.90;99.90;;;;;;5095619;28;20028;-82
2023/10/28 02:10:34;;;;;;;22.17;12.40;;;7.90;99.90;;;;;;5078901;28;20032;-83
2023/10/28 02:12:59;;;;;;;22.20;13.05;;;7.90;99.90;;;;;;5085232;28;20028;-82
2023/10/28 02:15:25;;;;;;;50.50;21.00;;;7.90;99.90;;;;;;5061196;28;20040;-82
2023/10/28 02:17:52;;;;;;;73.70;34.40;;;7.80;99.90;;;;;;5068211;28;20035;-82
2023/10/28 02:20:18;;;;;;;32.50;19.08;;;7.80;99.90;;;;;;5056340;28;20430;-82
2023/10/28 02:22:44;;;;;;;14.90;7.80;;;7.80;99.90;;;;;;5096152;28;20028;-83
2023/10/28 02:25:10;;;;;;;45.10;24.40;;;7.80;99.90;;;;;;5095684;28;20024;-83
2023/10/28 02:27:39;;;;;;;14.88;8.93;;;7.80;99.90;;;;;;5062224;27;20063;-82
2023/10/28 02:30:07;;;;;;;34.90;18.38;;;7.80;99.90;;;;;;5071209;28;20036;-83
2023/10/28 02:32:33;;;;;;;63.10;33.38;;;7.80;99.90;;;;;;5080615;28;20158;-83
2023/10/28 02:35:02;;;;;;;37.92;24.23;;;7.80;99.90;;;;;;5104608;28;20063;-82
2023/10/28 02:37:29;;;;;;;17.55;7.20;;;7.80;99.90;;;;;;5061508;28;20036;-82
2023/10/28 02:39:55;;;;;;;8.48;5.88;;;7.80;99.90;;;;;;5063698;28;20024;-82
2023/10/28 02:42:22;;;;;;;10.55;6.50;;;7.80;99.90;;;;;;5108800;27;20031;-83
2023/10/28 02:44:49;;;;;;;16.35;6.22;;;7.70;99.90;;;;;;5078560;28;20028;-81
2023/10/28 02:47:15;;;;;;;16.17;7.15;;;7.80;99.90;;;;;;5086733;28;20031;-82
2023/10/28 02:49:42;;;;;;;11.25;6.07;;;7.70;99.90;;;;;;5091774;28;20032;-82
2023/10/28 02:52:08;;;;;;;9.82;5.38;;;7.80;99.90;;;;;;5082722;28;20069;-82
2023/10/28 02:54:35;;;;;;;11.05;6.00;;;7.80;99.90;;;;;;5093661;28;20028;-82
2023/10/28 02:57:01;;;;;;;13.50;7.30;;;7.80;99.90;;;;;;5058378;28;20074;-82
2023/10/28 02:59:27;;;;;;;14.93;5.85;;;7.80;99.90;;;;;;5087686;28;20589;-82
2023/10/28 03:01:53;;;;;;;10.50;5.07;;;7.80;99.90;;;;;;5080558;28;20386;-82
2023/10/28 03:04:19;;;;;;;16.20;5.25;;;7.80;99.90;;;;;;5096155;28;20020;-81
2023/10/28 03:06:45;;;;;;;12.10;5.60;;;7.70;99.90;;;;;;5066466;28;20480;-81
2023/10/28 03:09:12;;;;;;;18.55;6.82;;;7.70;99.90;;;;;;5074446;28;20032;-82
2023/10/28 03:11:37;;;;;;;15.05;5.97;;;7.70;99.90;;;;;;5092761;28;20050;-81
2023/10/28 03:14:04;;;;;;;15.23;6.20;;;7.70;99.90;;;;;;5094521;28;20677;-81
2023/10/28 03:16:31;;;;;;;16.92;6.55;;;7.70;99.90;;;;;;5075515;28;20024;-82
2023/10/28 03:18:57;;;;;;;14.55;5.93;;;7.70;99.90;;;;;;5055667;28;20543;-82
2023/10/28 03:21:24;;;;;;;18.30;7.35;;;7.70;99.90;;;;;;5067980;28;20122;-82
2023/10/28 03:23:50;;;;;;;21.98;8.25;;;7.70;99.90;;;;;;5090826;28;20031;-82
2023/10/28 03:26:16;;;;;;;19.60;8.57;;;7.70;99.90;;;;;;5078996;28;20043;-82
2023/10/28 03:28:42;;;;;;;26.75;8.43;;;7.80;99.90;;;;;;5099230;28;20031;-82
2023/10/28 03:31:12;;;;;;;23.90;9.18;;;7.80;99.90;;;;;;5064788;28;20165;-82
2023/10/28 03:33:38;;;;;;;23.67;9.90;;;7.80;99.90;;;;;;5114256;27;20024;-82
2023/10/28 03:36:05;;;;;;;20.73;10.48;;;7.80;99.90;;;;;;5061779;28;20039;-82
2023/10/28 03:38:33;;;;;;;32.63;9.63;;;7.80;99.90;;;;;;5081260;28;20032;-82
2023/10/28 03:40:59;;;;;;;31.85;12.18;;;7.80;99.90;;;;;;5091845;28;20371;-82
2023/10/28 03:43:24;;;;;;;35.22;14.52;;;7.80;99.90;;;;;;5068762;28;20031;-82
2023/10/28 03:45:50;;;;;;;37.15;13.65;;;7.80;99.90;;;;;;5068726;28;20027;-82
2023/10/28 03:48:53;;;;;;;31.67;15.10;;;7.80;99.90;;;;;;5065681;28;20031;-82
2023/10/28 03:51:19;;;;;;;33.72;16.10;;;7.80;99.90;;;;;;5075874;28;20654;-82
2023/10/28 03:53:45;;;;;;;25.17;14.15;;;7.80;99.90;;;;;;5070878;28;20024;-82
2023/10/28 03:56:10;;;;;;;29.23;13.35;;;7.80;99.90;;;;;;5060593;28;20039;-82
2023/10/28 03:58:36;;;;;;;23.20;12.88;;;7.80;99.90;;;;;;5081776;28;20490;-82
2023/10/28 04:01:02;;;;;;;28.25;13.00;;;7.80;99.90;;;;;;5085186;28;20034;-82
2023/10/28 04:03:27;;;;;;;33.13;14.45;;;7.80;99.90;;;;;;5092757;28;20078;-82
2023/10/28 04:05:54;;;;;;;29.90;13.63;;;7.80;99.90;;;;;;5070470;28;20098;-82
2023/10/28 04:08:19;;;;;;;31.38;13.73;;;7.80;99.90;;;;;;5077514;28;20028;-82
2023/10/28 04:10:46;;;;;;;28.42;13.80;;;7.80;99.90;;;;;;5062722;28;20062;-82
2023/10/28 04:13:15;;;;;;;28.45;13.70;;;7.80;99.90;;;;;;5080301;28;20058;-82
2023/10/28 04:15:41;;;;;;;30.30;13.57;;;7.80;99.90;;;;;;5065351;28;20032;-82
2023/10/28 04:18:07;;;;;;;28.10;12.75;;;7.80;99.90;;;;;;5100502;28;20543;-82
2023/10/28 04:20:34;;;;;;;30.40;11.90;;;7.80;99.90;;;;;;5080663;28;20432;-82
2023/10/28 04:23:00;;;;;;;30.75;11.65;;;7.80;99.90;;;;;;5077777;28;20711;-82
2023/10/28 04:25:27;;;;;;;26.00;10.23;;;7.80;99.90;;;;;;5064177;28;20127;-82
2023/10/28 04:27:52;;;;;;;34.72;11.55;;;7.80;99.90;;;;;;5078660;28;20039;-82
2023/10/28 04:30:56;;;;;;;25.42;9.35;;;7.80;99.90;;;;;;5102963;28;20031;-82
2023/10/28 04:33:23;;;;;;;24.30;9.18;;;7.80;99.90;;;;;;5088002;28;20028;-82
2023/10/28 04:35:48;;;;;;;22.10;9.05;;;7.80;99.90;;;;;;5082181;28;20032;-82
2023/10/28 04:38:14;;;;;;;22.27;8.50;;;7.80;99.90;;;;;;5066408;28;20020;-82
2023/10/28 04:40:40;;;;;;;30.98;9.88;;;7.70;99.90;;;;;;5108041;28;20066;-82
2023/10/28 04:43:06;;;;;;;26.10;8.68;;;7.70;99.90;;;;;;5058936;28;20067;-82
2023/10/28 04:45:32;;;;;;;25.40;9.35;;;7.70;99.90;;;;;;5065970;28;20066;-82
2023/10/28 04:47:58;;;;;;;27.52;8.73;;;7.70;99.90;;;;;;5076321;28;20479;-82
2023/10/28 04:50:23;;;;;;;23.15;8.38;;;7.70;99.90;;;;;;5068119;28;20036;-82
2023/10/28 04:52:49;;;;;;;12.52;5.88;;;7.80;99.90;;;;;;5060996;28;20027;-82
2023/10/28 04:55:15;;;;;;;20.45;7.45;;;7.80;99.90;;;;;;5069494;28;20070;-82
2023/10/28 04:57:43;;;;;;;19.02;6.47;;;7.70;99.90;;;;;;5098253;28;20550;-82
2023/10/28 05:00:10;;;;;;;19.48;6.93;;;7.70;99.90;;;;;;5097786;28;20064;-82
2023/10/28 05:02:35;;;;;;;24.33;6.32;;;7.70;99.90;;;;;;5091589;28;20035;-83
2023/10/28 05:05:01;;;;;;;21.65;7.25;;;7.70;99.90;;;;;;5072481;28;20042;-82
2023/10/28 05:07:27;;;;;;;15.80;6.88;;;7.70;99.90;;;;;;5121876;27;20043;-82
2023/10/28 05:09:53;;;;;;;33.25;11.85;;;7.70;99.90;;;;;;5065204;28;20055;-83
2023/10/28 05:12:18;;;;;;;53.00;21.98;;;7.70;99.90;;;;;;5076041;28;20023;-83
2023/10/28 05:14:47;;;;;;;48.15;19.58;;;7.70;99.90;;;;;;5067088;28;20023;-82
2023/10/28 05:17:13;;;;;;;40.50;19.13;;;7.70;99.90;;;;;;5079694;28;20383;-83
2023/10/28 05:19:39;;;;;;;20.88;9.82;;;7.70;99.90;;;;;;5085225;28;20019;-82
2023/10/28 05:22:04;;;;;;;20.08;8.45;;;7.70;99.90;;;;;;5064418;28;20028;-82
2023/10/28 05:24:31;;;;;;;30.55;7.90;;;7.70;99.90;;;;;;5067201;28;20028;-82
2023/10/28 05:26:59;;;;;;;20.15;8.68;;;7.70;99.90;;;;;;5098566;28;20040;-82
2023/10/28 05:29:25;;;;;;;30.02;10.02;;;7.70;99.90;;;;;;5081373;28;20074;-82
2023/10/28 05:31:56;;;;;;;20.17;8.30;;;7.70;99.90;;;;;;5070662;28;20096;-82
2023/10/28 05:34:23;;;;;;;34.80;11.97;;;7.70;99.90;;;;;;5065919;28;20032;-82
2023/10/28 05:36:49;;;;;;;23.80;7.72;;;7.70;99.90;;;;;;5082314;28;20749;-82
2023/10/28 05:39:15;;;;;;;22.33;7.28;;;7.70;99.90;;;;;;5059417;28;20383;-82
2023/10/28 05:41:42;;;;;;;15.10;6.25;;;7.70;99.90;;;;;;5063617;28;20071;-82
2023/10/28 05:44:08;;;;;;;27.13;7.63;;;7.70;99.90;;;;;;5101730;28;20066;-82
2023/10/28 05:46:33;;;;;;;16.38;7.68;;;7.70;99.90;;;;;;5086636;28;20549;-82
2023/10/28 05:49:00;;;;;;;26.30;8.93;;;7.70;99.90;;;;;;5066033;28;20043;-82
2023/10/28 05:51:26;;;;;;;19.65;8.20;;;7.70;99.90;;;;;;5080702;28;20036;-82
2023/10/28 05:53:51;;;;;;;24.15;7.90;;;7.70;99.90;;;;;;5070271;28;20562;-82
2023/10/28 05:56:17;;;;;;;17.58;7.15;;;7.70;99.90;;;;;;5068046;28;20028;-82
2023/10/28 05:58:43;;;;;;;19.90;6.65;;;7.70;99.90;;;;;;5077991;28;20021;-82
2023/10/28 06:01:09;;;;;;;20.02;5.65;;;7.70;99.90;;;;;;5103877;28;20139;-83
2023/10/28 06:03:38;;;;;;;22.35;7.22;;;7.70;99.90;;;;;;5066897;28;20039;-83
2023/10/28 06:06:04;;;;;;;24.27;6.78;;;7.70;99.90;;;;;;5083383;28;20039;-83
2023/10/28 06:08:29;;;;;;;29.05;9.18;;;7.70;99.90;;;;;;5059065;28;20033;-83
2023/10/28 06:10:56;;;;;;;28.70;7.22;;;7.70;99.90;;;;;;5112741;28;20062;-83
2023/10/28 06:13:23;;;;;;;29.52;6.88;;;7.80;99.90;;;;;;5123420;27;20028;-83
2023/10/28 06:15:48;;;;;;;32.13;8.65;;;7.70;99.90;;;;;;5080602;28;20103;-83
2023/10/28 06:18:14;;;;;;;21.70;7.70;;;7.80;99.90;;;;;;5066552;28;20139;-83
2023/10/28 06:20:40;;;;;;;22.10;6.28;;;7.80;99.90;;;;;;5100325;28;20490;-83
2023/10/28 06:23:06;;;;;;;18.30;6.32;;;7.70;99.90;;;;;;5067822;28;20203;-83
2023/10/28 06:25:34;;;;;;;17.30;6.35;;;7.80;99.90;;;;;;5099195;28;20429;-83
2023/10/28 06:28:02;;;;;;;22.30;5.65;;;7.80;99.90;;;;;;5083202;28;20036;-83
2023/10/28 06:30:27;;;;;;;28.83;6.18;;;7.70;99.90;;;;;;5064780;28;20100;-83
2023/10/28 06:32:53;;;;;;;23.65;6.70;;;7.70;99.90;;;;;;5067678;28;20032;-83
2023/10/28 06:35:19;;;;;;;14.55;6.05;;;7.80;99.90;;;;;;5058168;28;20040;-83
2023/10/28 06:37:46;;;;;;;20.88;6.40;;;7.80;99.90;;;;;;5084440;28;20057;-83
2023/10/28 06:40:12;;;;;;;25.33;9.57;;;7.70;99.90;;;;;;5096748;27;20055;-83
2023/10/28 06:42:38;;;;;;;29.77;8.10;;;7.70;99.90;;;;;;5078336;28;20077;-83
2023/10/28 06:45:07;;;;;;;26.73;13.80;;;7.70;99.90;;;;;;5068272;28;20027;-82
2023/10/28 06:47:34;;;;;;;32.25;12.80;;;7.70;99.90;;;;;;5082616;28;20036;-83
2023/10/28 06:50:04;;;;;;;19.73;8.32;;;7.80;99.90;;;;;;5084667;28;20035;-82
2023/10/28 06:52:31;;;;;;;22.48;6.10;;;7.80;99.90;;;;;;5076148;28;20062;-82
2023/10/28 06:54:59;;;;;;;25.52;6.40;;;7.80;99.90;;;;;;5069195;28;20115;-83
2023/10/28 06:57:25;;;;;;;13.68;6.07;;;7.80;99.90;;;;;;5063015;28;20115;-83
2023/10/28 06:59:51;;;;;;;14.05;5.75;;;7.80;99.90;;;;;;5099208;28;20111;-83
2023/10/28 07:02:16;;;;;;;23.15;6.10;;;7.80;99.90;;;;;;5079369;28;20100;-83
2023/10/28 07:04:42;;;;;;;23.98;7.10;;;7.80;99.90;;;;;;5110402;27;20031;-84
2023/10/28 07:07:12;;;;;;;21.02;7.18;;;7.80;99.90;;;;;;5060153;28;20360;-83
2023/10/28 07:09:38;;;;;;;17.95;5.45;;;7.90;99.90;;;;;;5059922;28;20032;-84
2023/10/28 07:12:04;;;;;;;18.50;5.00;;;8.00;99.90;;;;;;5097574;28;20039;-83
2023/10/28 07:14:30;;;;;;;18.10;4.97;;;8.00;99.90;;;;;;5055058;28;20036;-83
2023/10/28 07:16:56;;;;;;;14.90;4.43;;;8.10;99.90;;;;;;5074500;28;20075;-83
2023/10/28 07:19:22;;;;;;;16.35;5.47;;;8.10;99.90;;;;;;5074468;28;20027;-82
2023/10/28 07:21:47;;;;;;;23.23;5.22;;;8.10;99.90;;;;;;5090648;28;20020;-82
2023/10/28 07:24:13;;;;;;;25.48;5.30;;;8.10;99.90;;;;;;5064683;28;20024;-82
2023/10/28 07:26:39;;;;;;;19.98;5.57;;;8.00;99.90;;;;;;5094490;28;20028;-82
2023/10/28 07:29:07;;;;;;;11.38;4.75;;;8.00;99.90;;;;;;5103619;28;20032;-83
2023/10/28 07:31:38;;;;;;;13.63;5.25;;;8.00;99.90;;;;;;5091665;28;20081;-83
2023/10/28 07:34:05;;;;;;;20.00;5.22;;;8.00;99.90;;;;;;5074065;28;20118;-83
2023/10/28 07:36:32;;;;;;;19.42;6.07;;;8.00;99.90;;;;;;5061704;28;20495;-82
2023/10/28 07:39:01;;;;;;;28.00;6.32;;;8.10;99.90;;;;;;5075878;28;20024;-83
2023/10/28 07:41:30;;;;;;;12.25;5.60;;;8.10;99.90;;;;;;5065653;28;20068;-83
2023/10/28 07:43:59;;;;;;;10.15;5.28;;;8.10;99.90;;;;;;5074698;28;20043;-82
2023/10/28 07:46:30;;;;;;;19.05;6.47;;;8.10;99.90;;;;;;5078546;28;20066;-83
2023/10/28 07:48:56;;;;;;;22.48;5.57;;;8.10;99.90;;;;;;5059990;28;20131;-82
2023/10/28 07:51:22;;;;;;;21.27;7.22;;;8.10;99.90;;;;;;5074898;28;20043;-82
2023/10/28 07:53:50;;;;;;;18.52;5.30;;;8.20;99.90;;;;;;5059140;28;20020;-82
2023/10/28 07:56:16;;;;;;;18.45;6.03;;;8.30;99.90;;;;;;5087366;28;20119;-81
2023/10/28 07:58:46;;;;;;;14.45;6.47;;;8.40;99.90;;;;;;5082550;28;20053;-81
2023/10/28 08:01:18;;;;;;;22.85;5.85;;;8.40;99.90;;;;;;5090708;28;20039;-82
2023/10/28 08:03:46;;;;;;;18.77;6.30;;;8.30;99.90;;;;;;5068217;28;20048;-82
2023/10/28 08:06:12;;;;;;;21.15;5.55;;;8.30;99.90;;;;;;5087284;28;20425;-82
2023/10/28 08:08:39;;;;;;;12.27;5.78;;;8.20;99.90;;;;;;5076655;28;20024;-83
2023/10/28 08:11:13;;;;;;;15.63;4.20;;;8.20;99.90;;;;;;5081027;28;20055;-82
2023/10/28 08:13:40;;;;;;;10.25;4.20;;;8.30;99.90;;;;;;5083741;28;20024;-83
2023/10/28 08:16:09;;;;;;;9.90;4.05;;;8.10;99.90;;;;;;5074369;28;20032;-83
2023/10/28 08:18:40;;;;;;;21.73;4.97;;;8.20;99.90;;;;;;5112083;27;20099;-82
2023/10/28 08:21:07;;;;;;;22.55;4.88;;;8.30;99.90;;;;;;5078788;28;20434;-83
2023/10/28 08:23:33;;;;;;;19.67;5.13;;;8.30;99.90;;;;;;5062911;28;20032;-83
2023/10/28 08:25:59;;;;;;;13.98;5.25;;;8.30;99.90;;;;;;5101724;28;20084;-83
2023/10/28 08:28:28;;;;;;;18.02;5.50;;;8.30;99.90;;;;;;5083340;28;20121;-83
2023/10/28 08:30:54;;;;;;;18.17;5.25;;;8.30;99.90;;;;;;5081504;28;20028;-83
2023/10/28 08:33:20;;;;;;;16.08;5.63;;;8.30;99.90;;;;;;5112907;28;20020;-82
2023/10/28 08:35:51;;;;;;;20.63;6.03;;;8.40;99.90;;;;;;5102211;28;20024;-83
2023/10/28 08:38:17;;;;;;;17.75;5.40;;;8.40;99.90;;;;;;5079789;28;20532;-83
2023/10/28 08:40:47;;;;;;;15.20;6.70;;;8.50;99.90;;;;;;5065407;28;20023;-83
2023/10/28 08:43:19;;;;;;;21.75;6.28;;;8.60;99.90;;;;;;5101875;28;20024;-83
2023/10/28 08:45:47;;;;;;;12.63;5.55;;;8.70;99.90;;;;;;5121216;27;20024;-83
2023/10/28 08:48:13;;;;;;;9.90;5.32;;;8.60;99.90;;;;;;5062866;28;20361;-83
2023/10/28 08:50:43;;;;;;;14.52;4.63;;;8.60;99.90;;;;;;5107694;28;20027;-83
2023/10/28 08:53:11;;;;;;;11.68;4.53;;;8.60;99.90;;;;;;5072208;28;20030;-83
2023/10/28 08:55:40;;;;;;;15.50;4.93;;;8.60;99.90;;;;;;5068230;28;20089;-83
2023/10/28 09:01:57;;;;;;;13.75;4.15;;;8.50;99.90;;;;;;5099867;28;20028;-83
2023/10/28 09:04:22;;;;;;;18.55;4.93;;;8.50;99.90;;;;;;5067518;28;20036;-83
2023/10/28 09:06:52;;;;;;;20.33;4.97;;;8.60;99.90;;;;;;5085497;28;20046;-83
2023/10/28 09:09:20;;;;;;;12.20;4.10;;;8.50;99.90;;;;;;5078425;28;20032;-83
2023/10/28 09:11:47;;;;;;;17.60;4.13;;;8.50;99.90;;;;;;5072439;28;20023;-83
2023/10/28 09:14:13;;;;;;;13.23;3.28;;;8.50;99.90;;;;;;5079881;28;20027;-82
2023/10/28 09:16:39;;;;;;;12.93;4.60;;;8.50;99.90;;;;;;5089593;28;20019;-83
2023/10/28 09:19:05;;;;;;;16.65;4.53;;;8.60;99.90;;;;;;5065166;28;20086;-83
2023/10/28 09:21:31;;;;;;;10.18;3.95;;;8.70;99.90;;;;;;5068447;28;20035;-83
2023/10/28 09:24:00;;;;;;;9.75;3.85;;;8.90;99.90;;;;;;5084929;28;20024;-83
2023/10/28 09:26:29;;;;;;;9.95;3.70;;;9.00;99.90;;;;;;5067134;28;20034;-83
2023/10/28 09:28:55;;;;;;;15.70;5.20;;;9.10;99.90;;;;;;5078252;28;20473;-83
2023/10/28 09:31:25;;;;;;;8.75;3.10;;;9.20;99.90;;;;;;5086071;28;20089;-83
2023/10/28 09:33:52;;;;;;;7.25;3.05;;;9.30;99.90;;;;;;5063430;28;20123;-82
2023/10/28 09:36:18;;;;;;;20.75;3.33;;;9.20;99.90;;;;;;5078482;28;20112;-83
2023/10/28 09:38:47;;;;;;;8.35;3.15;;;9.30;99.90;;;;;;5089794;28;20104;-83
2023/10/28 09:41:13;;;;;;;13.77;3.55;;;9.30;99.90;;;;;;5080078;28;20107;-82
2023/10/28 09:43:39;;;;;;;16.30;3.22;;;9.50;99.90;;;;;;5091300;28;20023;-82
2023/10/28 09:46:06;;;;;;;11.98;2.67;;;9.60;99.90;;;;;;5066215;28;20711;-83
2023/10/28 09:49:03;;;;;;;8.55;3.03;;;9.80;99.90;;;;;;5066023;28;20028;-83
2023/10/28 09:51:30;;;;;;;16.83;3.90;;;10.00;99.90;;;;;;5090463;27;20028;-83
2023/10/28 09:54:04;;;;;;;12.63;2.40;;;10.20;99.90;;;;;;5086771;28;20115;-83
2023/10/28 09:56:36;;;;;;;9.82;3.75;;;10.30;99.90;;;;;;5080145;28;20023;-82
2023/10/28 09:59:12;;;;;;;5.38;2.72;;;10.40;99.90;;;;;;5114740;27;20063;-83
2023/10/28 10:01:48;;;;;;;8.93;2.17;;;10.30;99.90;;;;;;5104257;28;20051;-83
2023/10/28 10:04:30;;;;;;;6.78;2.08;;;10.50;99.90;;;;;;5078839;28;20055;-82
2023/10/28 10:06:57;;;;;;;10.35;2.78;;;10.50;99.90;;;;;;5114439;27;20047;-83
2023/10/28 10:09:23;;;;;;;9.13;2.22;;;10.70;99.90;;;;;;5076270;28;20097;-82
2023/10/28 10:11:49;;;;;;;11.68;2.10;;;10.80;99.90;;;;;;5083478;28;20480;-83
2023/10/28 10:14:17;;;;;;;8.35;1.92;;;10.90;99.90;;;;;;5093180;28;20058;-82
2023/10/28 10:17:00;;;;;;;7.13;2.13;;;10.80;99.90;;;;;;5070734;28;20029;-82
2023/10/28 10:19:41;;;;;;;11.10;2.20;;;10.80;99.90;;;;;;5109274;27;20020;-83
2023/10/28 10:22:07;;;;;;;7.97;2.70;;;11.00;99.90;;;;;;5081258;28;20019;-82
2023/10/28 10:24:33;;;;;;;7.60;2.78;;;11.20;99.90;;;;;;5075225;28;20040;-83
2023/10/28 10:27:00;;;;;;;9.77;3.90;;;11.20;99.90;;;;;;5064457;28;20114;-83
2023/10/28 10:29:29;;;;;;;14.60;5.60;;;11.30;99.90;;;;;;5063010;28;20123;-83
2023/10/28 10:32:15;;;;;;;12.68;5.75;;;11.20;99.90;;;;;;5072738;28;20733;-83
2023/10/28 10:34:42;;;;;;;7.78;2.67;;;11.30;99.90;;;;;;5059863;28;20031;-83
2023/10/28 10:37:09;;;;;;;10.45;3.13;;;11.40;99.90;;;;;;5074191;28;20077;-83
2023/10/28 10:39:43;;;;;;;10.82;4.20;;;11.40;99.90;;;;;;5062216;28;20119;-82
2023/10/28 10:42:10;;;;;;;8.88;4.10;;;11.30;99.90;;;;;;5074768;28;20743;-83
2023/10/28 10:44:37;;;;;;;16.83;4.50;;;11.20;99.90;;;;;;5082016;28;20035;-83
2023/10/28 10:47:04;;;;;;;12.45;4.53;;;11.40;99.90;;;;;;5113091;27;20042;-82
2023/10/28 10:49:31;;;;;;;10.90;2.67;;;11.50;99.90;;;;;;5065758;28;20144;-83
2023/10/28 10:51:59;;;;;;;9.90;4.07;;;11.40;99.90;;;;;;5064882;28;20081;-82
2023/10/28 10:54:30;;;;;;;9.43;3.42;;;11.30;99.90;;;;;;5091960;28;20074;-82
2023/10/28 10:56:56;;;;;;;14.93;2.27;;;11.20;99.90;;;;;;5084423;28;20803;-82
2023/10/28 10:59:22;;;;;;;14.07;3.80;;;11.20;99.90;;;;;;5094598;28;20023;-83
2023/10/28 11:01:47;;;;;;;9.98;3.20;;;11.10;99.90;;;;;;5086001;28;20068;-82
2023/10/28 11:04:13;;;;;;;14.30;2.92;;;11.10;99.90;;;;;;5095849;28;20030;-83
2023/10/28 11:06:45;;;;;;;12.35;3.45;;;11.00;99.90;;;;;;5065011;28;20094;-83
2023/10/28 11:09:15;;;;;;;16.75;3.20;;;10.90;99.90;;;;;;5062713;28;20119;-83
2023/10/28 11:11:41;;;;;;;16.95;3.88;;;11.00;99.90;;;;;;5083410;28;20028;-83
2023/10/28 11:14:07;;;;;;;10.80;2.83;;;11.00;99.90;;;;;;5068615;28;20023;-82
2023/10/28 11:16:33;;;;;;;11.10;2.75;;;11.00;99.90;;;;;;5074737;28;20028;-83
2023/10/28 11:19:03;;;;;;;15.30;2.67;;;11.10;99.90;;;;;;5101919;28;20110;-84
2023/10/28 11:21:30;;;;;;;8.63;3.55;;;11.00;99.90;;;;;;5080441;28;20036;-82
2023/10/28 11:23:57;;;;;;;9.27;3.35;;;11.10;99.90;;;;;;5103946;27;20039;-83
2023/10/28 11:26:23;;;;;;;14.73;3.38;;;11.00;99.90;;;;;;5058766;28;20020;-83
2023/10/28 11:29:09;;;;;;;9.43;3.08;;;11.00;99.90;;;;;;5064748;28;20046;-83
2023/10/28 11:31:39;;;;;;;14.55;2.85;;;10.90;99.90;;;;;;5075784;28;20103;-83
2023/10/28 11:34:06;;;;;;;18.17;6.65;;;10.80;99.90;;;;;;5067857;28;20585;-83
2023/10/28 11:36:33;;;;;;;17.80;6.88;;;10.80;99.90;;;;;;5061220;28;20032;-83
2023/10/28 11:39:08;;;;;;;13.18;3.15;;;10.70;99.90;;;;;;5059159;28;20055;-83
2023/10/28 11:41:34;;;;;;;17.00;3.72;;;10.70;99.90;;;;;;5095616;28;20081;-83
2023/10/28 11:44:00;;;;;;;14.65;4.65;;;10.90;99.90;;;;;;5062739;28;20032;-83
2023/10/28 11:46:26;;;;;;;13.60;3.90;;;10.90;99.90;;;;;;5075202;28;21689;-83
2023/10/28 11:48:51;;;;;;;15.98;2.97;;;10.80;99.90;;;;;;5067949;28;20031;-83
2023/10/28 11:51:17;;;;;;;15.65;3.85;;;10.80;99.90;;;;;;5109557;28;20076;-83
2023/10/28 11:54:04;;;;;;;22.98;3.28;;;10.70;99.90;;;;;;5088255;28;20054;-83
2023/10/28 11:56:32;;;;;;;11.98;2.80;;;10.70;99.90;;;;;;5090948;28;20052;-83
2023/10/28 11:58:59;;;;;;;13.20;2.35;;;10.70;99.90;;;;;;5074753;28;20073;-83
2023/10/28 12:01:26;;;;;;;16.55;3.85;;;10.70;99.90;;;;;;5070565;28;20690;-82
2023/10/28 12:03:52;;;;;;;14.07;3.33;;;10.70;99.90;;;;;;5073940;28;20028;-83
2023/10/28 12:06:17;;;;;;;16.73;3.60;;;10.70;99.90;;;;;;5057479;28;20103;-83
2023/10/28 12:08:43;;;;;;;16.40;3.85;;;10.60;99.90;;;;;;5108196;28;20031;-82
2023/10/28 12:11:21;;;;;;;12.10;4.10;;;10.50;99.90;;;;;;5057355;28;20024;-83
2023/10/28 12:13:46;;;;;;;13.65;2.95;;;10.50;99.90;;;;;;5057308;28;20603;-83
2023/10/28 12:16:12;;;;;;;16.00;4.03;;;10.40;99.90;;;;;;5071108;28;20107;-83
2023/10/28 12:18:37;;;;;;;12.77;4.85;;;10.30;99.90;;;;;;5061736;28;20024;-83
2023/10/28 12:21:03;;;;;;;10.75;3.13;;;10.30;99.90;;;;;;5090114;28;20028;-84
2023/10/28 12:23:29;;;;;;;22.85;4.78;;;10.20;99.90;;;;;;5073270;28;20028;-83
2023/10/28 12:26:29;;;;;;;11.98;3.50;;;10.00;99.90;;;;;;5089581;28;20903;-83
2023/10/28 12:28:56;;;;;;;14.07;3.45;;;10.00;99.90;;;;;;5091782;28;20027;-83
2023/10/28 12:31:23;;;;;;;16.13;5.45;;;10.00;99.90;;;;;;5071589;28;20031;-83
2023/10/28 12:33:49;;;;;;;15.90;3.00;;;10.00;99.90;;;;;;5097995;28;20019;-83
2023/10/28 12:36:47;;;;;;;21.13;5.47;;;9.90;99.90;;;;;;5077047;28;20028;-82
2023/10/28 12:39:16;;;;;;;13.20;4.43;;;9.70;99.90;;;;;;5079440;28;20036;-83
2023/10/28 12:41:44;;;;;;;16.77;6.32;;;9.60;99.90;;;;;;5061403;28;20032;-82
2023/10/28 12:44:10;;;;;;;15.98;4.60;;;9.60;99.90;;;;;;5071591;28;20033;-83
2023/10/28 12:46:36;;;;;;;17.20;6.05;;;9.60;99.90;;;;;;5099219;28;20035;-82
2023/10/28 12:49:01;;;;;;;35.53;5.95;;;9.50;99.90;;;;;;5115962;28;20059;-83
2023/10/28 12:51:28;;;;;;;21.95;4.97;;;9.50;99.90;;;;;;5065478;28;20043;-83
2023/10/28 12:53:57;;;;;;;17.45;5.90;;;9.30;99.90;;;;;;5061085;28;20036;-82